Time;durP1;ratioP1;P1;durP2;ratioP2;P2;SDS_P1;SDS_P2;PMS_P1;PMS_P2;Temp;Humidity;BMP_temperature;BMP_pressure;BME280_temperature;BME280_humidity;BME280_pressure;Samples;Min_cycle;Max_cycle;Signal;HPM_P1;HPM_P2
2022/05/04 00:01:23;;;;;;;1.23;0.77;;;15.10;99.90;;;;;;5087570;28;20456;-77
2022/05/04 00:03:51;;;;;;;2.83;0.70;;;15.00;99.90;;;;;;5095068;28;20469;-78
2022/05/04 00:06:21;;;;;;;0.60;0.20;;;15.00;99.90;;;;;;5092991;28;20476;-77
2022/05/04 00:08:50;;;;;;;0.80;0.40;;;15.00;99.90;;;;;;5092434;28;20469;-77
2022/05/04 00:11:17;;;;;;;0.70;0.50;;;15.00;99.90;;;;;;5090769;28;20466;-77
2022/05/04 00:13:45;;;;;;;0.83;0.47;;;15.00;99.90;;;;;;5089626;28;20479;-78
2022/05/04 00:16:13;;;;;;;1.63;0.40;;;15.00;99.90;;;;;;5082892;28;20506;-78
2022/05/04 00:18:41;;;;;;;0.60;0.10;;;14.90;99.90;;;;;;5086452;28;20478;-77
2022/05/04 00:21:09;;;;;;;2.17;1.03;;;14.90;99.90;;;;;;5087784;28;20517;-78
2022/05/04 00:23:39;;;;;;;2.70;1.53;;;14.90;99.90;;;;;;5087393;28;20509;-77
2022/05/04 00:26:07;;;;;;;0.80;0.57;;;14.80;99.90;;;;;;5075769;23;20583;-77
2022/05/04 00:28:35;;;;;;;1.90;0.60;;;14.70;99.90;;;;;;5052506;28;20453;-76
2022/05/04 00:31:02;;;;;;;0.60;0.10;;;14.70;99.90;;;;;;5053374;28;20445;-78
2022/05/04 00:33:31;;;;;;;2.20;2.00;;;14.70;99.90;;;;;;5053194;28;20572;-78
2022/05/04 00:35:59;;;;;;;2.20;1.50;;;14.70;99.90;;;;;;5073015;28;20477;-78
2022/05/04 00:38:26;;;;;;;0.60;0.20;;;14.60;99.90;;;;;;5077121;28;20454;-78
2022/05/04 00:40:56;;;;;;;0.80;0.20;;;14.60;99.90;;;;;;5076368;28;20445;-77
2022/05/04 00:43:25;;;;;;;0.87;0.60;;;14.50;99.90;;;;;;5077450;28;20453;-78
2022/05/04 00:45:53;;;;;;;1.87;0.97;;;14.50;99.90;;;;;;5076115;28;20561;-76
2022/05/04 00:48:21;;;;;;;1.57;0.80;;;14.50;99.90;;;;;;5075071;28;20456;-77
2022/05/04 00:50:50;;;;;;;2.23;1.77;;;14.40;99.90;;;;;;5073863;28;20807;-78
2022/05/04 00:53:19;;;;;;;0.70;0.30;;;;;;;;;;5073011;28;20546;-77
2022/05/04 00:55:47;;;;;;;2.03;1.87;;;14.30;99.90;;;;;;5072384;28;20509;-77
2022/05/04 01:01:03;;;;;;;0.70;0.30;;;14.20;99.90;;;;;;5071315;28;20480;-77
2022/05/04 01:03:31;;;;;;;0.60;0.30;;;14.20;99.90;;;;;;5072241;28;20457;-77
2022/05/04 01:05:59;;;;;;;0.70;0.40;;;14.10;99.90;;;;;;5071442;28;20581;-77
2022/05/04 01:08:27;;;;;;;0.90;0.40;;;14.10;99.90;;;;;;5071102;28;20457;-77
2022/05/04 01:10:55;;;;;;;1.07;0.60;;;14.10;99.90;;;;;;5070727;28;20494;-77
2022/05/04 01:13:24;;;;;;;0.80;0.60;;;14.10;99.90;;;;;;5070798;28;20476;-77
2022/05/04 01:15:52;;;;;;;0.97;0.87;;;13.90;99.90;;;;;;5070628;28;20481;-76
2022/05/04 01:18:20;;;;;;;0.60;0.20;;;13.90;99.90;;;;;;5071025;28;20446;-77
2022/05/04 01:20:48;;;;;;;0.70;0.30;;;13.90;99.90;;;;;;5069810;28;20458;-77
2022/05/04 01:23:17;;;;;;;0.77;0.40;;;13.90;99.90;;;;;;5069076;28;20549;-77
2022/05/04 01:25:45;;;;;;;1.57;1.33;;;13.90;99.90;;;;;;5069734;28;20477;-77
2022/05/04 01:28:13;;;;;;;1.43;0.70;;;13.80;99.90;;;;;;5069521;28;20827;-77
2022/05/04 01:30:41;;;;;;;1.00;0.50;;;13.80;99.90;;;;;;5070868;28;21052;-77
2022/05/04 01:33:09;;;;;;;0.60;0.30;;;13.70;99.90;;;;;;5071328;28;20450;-77
2022/05/04 01:35:38;;;;;;;0.70;0.57;;;13.70;99.90;;;;;;5070282;28;20495;-77
2022/05/04 01:38:06;;;;;;;0.60;0.10;;;13.70;99.90;;;;;;5070101;28;20814;-77
2022/05/04 01:40:35;;;;;;;2.50;2.00;;;13.70;99.90;;;;;;5070906;28;20534;-76
2022/05/04 01:43:03;;;;;;;0.80;0.40;;;13.10;99.90;;;;;;5072868;28;20983;-77
2022/05/04 01:45:31;;;;;;;0.70;0.20;;;13.60;99.90;;;;;;5070842;28;20474;-78
2022/05/04 01:47:59;;;;;;;0.87;0.63;;;13.60;99.90;;;;;;5070914;28;20917;-78
2022/05/04 01:50:27;;;;;;;3.23;2.93;;;13.60;99.90;;;;;;5070867;28;20550;-77
2022/05/04 01:52:55;;;;;;;0.60;0.33;;;;;;;;;;5071440;28;20864;-78
2022/05/04 01:55:24;;;;;;;0.60;0.20;;;13.60;99.90;;;;;;5071012;28;20512;-76
2022/05/04 01:57:53;;;;;;;1.10;0.83;;;13.50;99.90;;;;;;5070704;28;20445;-78
2022/05/04 02:00:21;;;;;;;1.37;0.30;;;13.60;99.90;;;;;;5071244;28;20573;-78
2022/05/04 02:02:50;;;;;;;0.60;0.20;;;13.50;99.90;;;;;;5070840;28;20463;-78
2022/05/04 02:05:18;;;;;;;1.10;0.53;;;13.50;99.90;;;;;;5070692;28;20536;-77
2022/05/04 02:07:46;;;;;;;0.60;0.20;;;13.40;1.00;;;;;;5070562;28;20441;-77
2022/05/04 02:10:15;;;;;;;0.90;0.47;;;13.40;1.00;;;;;;5070760;28;20460;-77
2022/05/04 02:12:44;;;;;;;1.00;0.57;;;13.40;1.00;;;;;;5070864;28;20823;-77
2022/05/04 02:15:13;;;;;;;3.23;3.03;;;13.40;1.00;;;;;;5069589;28;20478;-78
2022/05/04 02:17:41;;;;;;;0.60;0.10;;;13.40;1.00;;;;;;5070864;28;20447;-77
2022/05/04 02:20:10;;;;;;;4.10;1.73;;;13.40;1.00;;;;;;5074378;28;20726;-77
2022/05/04 02:22:38;;;;;;;0.80;0.37;;;13.30;1.00;;;;;;5074140;28;20448;-78
2022/05/04 02:25:07;;;;;;;0.80;0.50;;;13.30;1.00;;;;;;5073906;28;20553;-77
2022/05/04 02:27:35;;;;;;;0.80;0.67;;;13.30;1.00;;;;;;5073838;28;20446;-77
2022/05/04 02:30:04;;;;;;;0.70;0.40;;;;;;;;;;5074519;28;20449;-78
2022/05/04 02:32:33;;;;;;;0.70;0.47;;;13.30;1.00;;;;;;5062551;28;20530;-78
2022/05/04 02:37:57;;;;;;;1.00;0.60;;;13.20;1.00;;;;;;5074753;28;20456;-77
2022/05/04 02:40:26;;;;;;;0.60;0.20;;;13.30;1.00;;;;;;5077148;28;20541;-77
2022/05/04 02:42:54;;;;;;;1.30;0.57;;;13.20;1.00;;;;;;5077872;28;20471;-78
2022/05/04 02:45:22;;;;;;;1.03;0.60;;;13.20;1.00;;;;;;5076613;28;20466;-77
2022/05/04 02:47:51;;;;;;;0.80;0.60;;;13.10;1.00;;;;;;5076714;28;20468;-79
2022/05/04 02:50:19;;;;;;;0.60;0.20;;;13.10;1.00;;;;;;5076872;28;20449;-77
2022/05/04 02:52:48;;;;;;;0.60;0.20;;;13.10;1.00;;;;;;5078860;28;20453;-78
2022/05/04 02:55:16;;;;;;;0.70;0.37;;;13.20;1.00;;;;;;5084298;28;20481;-77
2022/05/04 02:57:44;;;;;;;0.60;0.20;;;13.10;1.00;;;;;;5083069;28;20473;-77
2022/05/04 03:00:13;;;;;;;0.70;0.27;;;13.10;1.00;;;;;;5082035;28;20449;-77
2022/05/04 03:02:41;;;;;;;2.30;1.23;;;13.10;1.00;;;;;;5076520;28;20466;-76
2022/05/04 03:05:12;;;;;;;0.97;0.57;;;13.10;1.00;;;;;;5075471;28;20467;-77
2022/05/04 03:07:40;;;;;;;0.90;0.50;;;13.00;1.00;;;;;;5075540;28;20439;-77
2022/05/04 03:10:09;;;;;;;0.97;0.87;;;13.10;1.00;;;;;;5076402;28;20435;-79
2022/05/04 03:12:36;;;;;;;1.13;1.03;;;13.00;1.00;;;;;;5076124;28;20454;-78
2022/05/04 03:15:05;;;;;;;0.60;0.20;;;13.00;1.00;;;;;;5075041;28;20627;-78
2022/05/04 03:17:34;;;;;;;0.80;0.80;;;13.00;1.00;;;;;;5074502;28;20441;-78
2022/05/04 03:20:02;;;;;;;0.60;0.20;;;13.00;1.00;;;;;;5074432;28;20447;-77
2022/05/04 03:22:32;;;;;;;0.90;0.40;;;13.00;1.00;;;;;;5074255;28;20446;-78
2022/05/04 03:25:00;;;;;;;1.30;0.40;;;13.00;1.00;;;;;;5076559;28;20488;-77
2022/05/04 03:27:28;;;;;;;0.60;0.20;;;13.00;1.00;;;;;;5077526;28;20506;-79
2022/05/04 03:30:03;;;;;;;0.60;0.10;;;13.00;1.00;;;;;;5075012;28;20532;-77
2022/05/04 03:32:31;;;;;;;0.60;0.10;;;13.00;1.00;;;;;;5074569;28;20439;-76
2022/05/04 03:34:59;;;;;;;8.60;3.17;;;13.00;1.00;;;;;;5072639;28;20473;-77
2022/05/04 03:37:26;;;;;;;0.80;0.60;;;13.00;1.00;;;;;;5073005;28;20532;-77
2022/05/04 03:39:56;;;;;;;0.73;0.70;;;;;;;;;;5072508;28;20824;-76
2022/05/04 03:42:24;;;;;;;4.57;4.27;;;;;;;;;;5073027;28;20454;-77
2022/05/04 03:44:52;;;;;;;0.60;0.10;;;12.90;1.00;;;;;;5072197;28;20470;-76
2022/05/04 03:47:20;;;;;;;0.60;0.20;;;12.90;1.00;;;;;;5072115;28;20469;-77
2022/05/04 03:49:48;;;;;;;0.70;0.20;;;12.90;1.00;;;;;;5072552;28;20440;-77
2022/05/04 03:52:16;;;;;;;0.80;0.63;;;12.90;1.00;;;;;;5072353;28;20465;-77
2022/05/04 03:54:44;;;;;;;4.00;3.10;;;12.90;1.00;;;;;;5071476;28;20504;-77
2022/05/04 03:57:13;;;;;;;0.60;0.20;;;12.90;1.00;;;;;;5072501;28;20452;-77
2022/05/04 03:59:41;;;;;;;0.60;0.20;;;12.90;1.00;;;;;;5072854;28;20474;-76
2022/05/04 04:02:09;;;;;;;0.90;0.80;;;13.00;1.00;;;;;;5072716;28;20446;-76
2022/05/04 04:04:37;;;;;;;1.83;1.03;;;13.00;1.00;;;;;;5071922;28;20479;-76
2022/05/04 04:07:05;;;;;;;0.60;0.10;;;13.00;1.00;;;;;;5071942;28;20446;-77
2022/05/04 04:09:33;;;;;;;1.43;1.23;;;13.00;1.00;;;;;;5072915;28;20538;-76
2022/05/04 04:12:02;;;;;;;0.60;0.20;;;13.00;1.00;;;;;;5072438;28;20516;-78
2022/05/04 04:14:31;;;;;;;0.60;0.10;;;12.90;1.00;;;;;;5073806;28;20470;-78
2022/05/04 04:17:00;;;;;;;0.90;0.50;;;;;;;;;;5073441;28;20515;-77
2022/05/04 04:19:28;;;;;;;3.90;3.70;;;13.00;1.00;;;;;;5073757;28;20493;-78
2022/05/04 04:21:55;;;;;;;0.60;0.10;;;13.00;1.00;;;;;;5074242;28;20535;-76
2022/05/04 04:24:23;;;;;;;1.90;1.80;;;;;;;;;;5073610;28;20483;-77
2022/05/04 04:26:52;;;;;;;0.60;0.10;;;;;;;;;;5074232;28;20445;-78
2022/05/04 04:29:20;;;;;;;1.03;0.93;;;12.90;1.00;;;;;;5074715;28;20450;-76
2022/05/04 04:31:50;;;;;;;1.27;0.83;;;12.80;1.00;;;;;;5069734;28;20557;-77
2022/05/04 04:34:18;;;;;;;2.50;1.40;;;12.90;1.00;;;;;;5072139;28;20442;-77
2022/05/04 04:36:46;;;;;;;1.30;0.83;;;12.80;1.00;;;;;;5053930;28;20486;-77
2022/05/04 04:39:14;;;;;;;0.60;0.20;;;12.90;1.00;;;;;;5071006;28;20941;-77
2022/05/04 04:41:42;;;;;;;0.60;0.17;;;12.90;1.00;;;;;;5074010;28;20446;-79
2022/05/04 04:44:11;;;;;;;0.60;0.30;;;12.90;1.00;;;;;;5074289;28;20845;-78
2022/05/04 04:46:41;;;;;;;0.70;0.20;;;;;;;;;;5074312;28;20476;-77
2022/05/04 04:49:11;;;;;;;0.70;0.33;;;13.00;1.00;;;;;;5070081;28;20515;-78
2022/05/04 04:51:39;;;;;;;1.23;0.53;;;13.00;1.00;;;;;;5064022;28;20520;-76
2022/05/04 04:54:07;;;;;;;1.03;0.93;;;13.00;1.00;;;;;;5072422;28;20857;-78
2022/05/04 04:56:35;;;;;;;0.60;0.20;;;13.00;1.00;;;;;;5072582;28;20478;-77
2022/05/04 04:59:03;;;;;;;3.63;2.63;;;13.10;1.00;;;;;;5073406;28;20444;-78
2022/05/04 05:01:32;;;;;;;1.47;0.97;;;;;;;;;;5072676;28;20459;-78
2022/05/04 05:04:02;;;;;;;0.93;0.43;;;13.10;1.00;;;;;;5072577;28;20847;-78
2022/05/04 05:06:32;;;;;;;0.60;0.10;;;13.10;1.00;;;;;;5072679;28;20520;-76
2022/05/04 05:09:00;;;;;;;0.60;0.10;;;;;;;;;;5073165;28;20468;-78
2022/05/04 05:11:28;;;;;;;0.90;0.50;;;13.20;1.00;;;;;;5073997;28;20453;-77
2022/05/04 05:16:42;;;;;;;0.60;0.17;;;13.30;1.00;;;;;;5073757;28;20598;-77
2022/05/04 05:19:11;;;;;;;0.80;0.30;;;13.40;1.00;;;;;;5065001;28;20916;-78
2022/05/04 05:21:41;;;;;;;0.63;0.30;;;13.40;1.00;;;;;;5073650;28;20538;-77
2022/05/04 05:24:09;;;;;;;0.60;0.40;;;13.50;1.00;;;;;;5075275;28;20889;-77
2022/05/04 05:26:37;;;;;;;0.60;0.20;;;13.50;1.00;;;;;;5071095;28;20482;-78
2022/05/04 05:29:06;;;;;;;1.17;0.30;;;13.50;1.00;;;;;;5072542;28;20500;-78
2022/05/04 05:31:38;;;;;;;0.60;0.20;;;13.60;1.00;;;;;;5074444;28;20439;-78
2022/05/04 05:34:06;;;;;;;0.60;0.10;;;13.60;1.00;;;;;;5074202;28;20450;-78
2022/05/04 05:36:34;;;;;;;0.60;0.10;;;13.60;1.00;;;;;;5074252;28;20509;-79
2022/05/04 05:39:05;;;;;;;0.60;0.10;;;13.70;1.00;;;;;;5074946;28;20474;-79
2022/05/04 05:41:33;;;;;;;1.37;1.07;;;13.70;1.00;;;;;;5082818;28;20798;-77
2022/05/04 05:44:01;;;;;;;1.53;1.43;;;13.80;1.00;;;;;;5087227;28;20447;-77
2022/05/04 05:46:29;;;;;;;0.60;0.20;;;13.80;1.00;;;;;;5077153;28;20448;-79
2022/05/04 05:48:57;;;;;;;0.90;0.50;;;13.90;1.00;;;;;;5077366;28;20474;-79
2022/05/04 05:51:25;;;;;;;1.17;0.70;;;13.90;1.00;;;;;;5077410;28;20511;-78
2022/05/04 05:53:53;;;;;;;0.60;0.20;;;13.80;1.00;;;;;;5079697;28;20447;-78
2022/05/04 05:56:23;;;;;;;0.60;0.20;;;13.80;1.00;;;;;;5080380;28;20491;-79
2022/05/04 05:58:50;;;;;;;0.60;0.20;;;13.80;1.00;;;;;;5080786;28;20469;-80
2022/05/04 06:01:18;;;;;;;0.60;0.20;;;13.80;1.00;;;;;;5081602;28;20474;-79
2022/05/04 06:03:47;;;;;;;0.90;0.57;;;13.90;1.00;;;;;;5064713;28;20458;-79
2022/05/04 06:06:15;;;;;;;0.70;0.33;;;13.90;1.00;;;;;;5075038;28;20504;-79
2022/05/04 06:08:43;;;;;;;0.60;0.10;;;;;;;;;;5076501;28;20922;-78
2022/05/04 06:11:11;;;;;;;0.60;0.20;;;14.00;1.00;;;;;;5074052;28;20937;-80
2022/05/04 06:13:42;;;;;;;0.60;0.17;;;14.00;1.00;;;;;;5063747;28;21101;-79
2022/05/04 06:16:10;;;;;;;1.70;1.50;;;14.10;1.00;;;;;;5079232;28;20584;-79
2022/05/04 06:18:38;;;;;;;0.60;0.10;;;;;;;;;;5081794;28;20883;-77
2022/05/04 06:21:07;;;;;;;0.60;0.17;;;14.10;1.00;;;;;;5081090;28;20455;-80
2022/05/04 06:23:34;;;;;;;7.50;1.57;;;14.20;1.00;;;;;;5082819;28;20538;-79
2022/05/04 06:26:03;;;;;;;0.60;0.20;;;14.20;1.00;;;;;;5084343;28;20575;-79
2022/05/04 06:28:31;;;;;;;0.60;0.20;;;14.20;1.00;;;;;;5076764;28;20449;-78
2022/05/04 06:36:31;;;;;;;0.73;0.70;;;14.30;1.00;;;;;;5096290;28;20481;-81
2022/05/04 06:39:02;;;;;;;0.60;0.10;;;14.30;1.00;;;;;;5095454;28;20462;-78
2022/05/04 06:41:30;;;;;;;0.90;0.20;;;14.40;1.00;;;;;;5083963;28;20446;-78
2022/05/04 06:43:58;;;;;;;0.87;0.57;;;14.40;1.00;;;;;;5078484;28;20432;-78
2022/05/04 06:46:27;;;;;;;0.87;0.27;;;14.50;1.00;;;;;;5079306;28;20808;-76
2022/05/04 06:48:55;;;;;;;1.17;0.50;;;14.50;1.00;;;;;;5082922;28;20439;-79
2022/05/04 06:51:23;;;;;;;0.60;0.10;;;14.50;1.00;;;;;;5083696;28;20458;-76
2022/05/04 06:53:51;;;;;;;0.70;0.50;;;14.50;1.00;;;;;;5081984;28;20466;-78
2022/05/04 06:56:39;;;;;;;0.60;0.10;;;14.50;1.00;;;;;;5076484;28;20480;-77
2022/05/04 06:59:07;;;;;;;0.60;0.10;;;14.50;1.00;;;;;;5075049;28;20483;-77
2022/05/04 07:01:36;;;;;;;0.60;0.10;;;14.50;1.00;;;;;;5075785;28;20460;-76
2022/05/04 07:04:05;;;;;;;1.27;1.17;;;14.70;1.00;;;;;;5076354;28;20453;-78
2022/05/04 07:06:33;;;;;;;1.90;1.80;;;14.70;1.00;;;;;;5076341;28;20974;-77
2022/05/04 07:09:01;;;;;;;0.60;0.10;;;14.80;1.00;;;;;;5075500;28;21001;-74
2022/05/04 07:11:30;;;;;;;0.60;0.10;;;;;;;;;;5075762;28;20450;-78
2022/05/04 07:14:01;;;;;;;0.60;0.20;;;;;;;;;;5076434;28;20441;-75
2022/05/04 07:16:29;;;;;;;0.60;0.10;;;;;;;;;;5076639;28;20472;-78
2022/05/04 07:19:15;;;;;;;0.60;0.30;;;15.10;1.00;;;;;;5075434;28;20479;-76
2022/05/04 07:21:43;;;;;;;0.60;0.20;;;15.20;1.00;;;;;;5076262;28;20441;-76
2022/05/04 07:24:11;;;;;;;14.97;14.03;;;15.30;1.00;;;;;;5075494;28;20985;-76
2022/05/04 07:26:40;;;;;;;0.60;0.10;;;15.30;1.00;;;;;;5075689;28;20458;-77
2022/05/04 07:29:08;;;;;;;0.60;0.10;;;15.40;1.00;;;;;;5074648;28;20446;-76
2022/05/04 07:31:41;;;;;;;0.60;0.10;;;15.50;1.00;;;;;;5075076;28;20439;-75
2022/05/04 07:34:09;;;;;;;0.60;0.10;;;;;;;;;;5075663;28;20967;-76
2022/05/04 07:36:39;;;;;;;0.60;0.10;;;15.60;99.90;;;;;;5074930;28;20443;-77
2022/05/04 07:39:07;;;;;;;0.60;0.10;;;15.60;99.90;;;;;;5074165;28;20457;-75
2022/05/04 07:44:22;;;;;;;0.60;0.10;;;15.80;99.90;;;;;;5073249;28;20462;-78
2022/05/04 07:46:50;;;;;;;0.60;0.10;;;15.90;99.90;;;;;;5075859;28;20449;-76
2022/05/04 07:49:18;;;;;;;0.60;0.10;;;16.00;99.90;;;;;;5075822;28;20439;-77
2022/05/04 07:51:51;;;;;;;0.60;0.10;;;16.10;99.90;;;;;;5059955;28;20504;-77
2022/05/04 07:57:15;;;;;;;0.60;0.10;;;16.20;99.90;;;;;;5064998;28;20522;-74
2022/05/04 08:04:16;;;;;;;0.60;0.10;;;16.20;99.90;;;;;;5067380;28;20940;-73
2022/05/04 08:05:43;;;;;;;0.60;0.10;;;16.50;99.90;;;;;;5084153;28;20852;-77
2022/05/04 08:08:14;;;;;;;0.60;0.10;;;;;;;;;;5078529;28;20551;-78
2022/05/04 08:10:42;;;;;;;0.60;0.10;;;16.80;99.90;;;;;;5081090;28;20524;-78
2022/05/04 08:13:11;;;;;;;1.57;1.47;;;17.10;99.90;;;;;;5077766;28;20461;-77
2022/05/04 08:15:39;;;;;;;1.77;1.07;;;17.20;99.90;;;;;;5064928;28;20461;-78
2022/05/04 08:18:08;;;;;;;0.60;0.20;;;17.30;99.90;;;;;;5074754;28;20482;-76
2022/05/04 08:20:37;;;;;;;0.60;0.10;;;;;;;;;;5078306;28;20820;-77
2022/05/04 08:23:05;;;;;;;0.60;0.10;;;17.30;99.90;;;;;;5083088;28;20830;-78
2022/05/04 08:25:36;;;;;;;0.70;0.37;;;;;;;;;;5081450;28;20864;-77
2022/05/04 08:28:07;;;;;;;0.60;0.10;;;17.50;99.90;;;;;;5080775;28;20922;-76
2022/05/04 08:30:35;;;;;;;0.60;0.10;;;17.60;99.90;;;;;;5086929;28;20965;-79
2022/05/04 08:33:03;;;;;;;0.93;0.83;;;17.70;99.90;;;;;;5085354;28;20550;-77
2022/05/04 08:35:30;;;;;;;0.70;0.20;;;17.70;99.90;;;;;;5084163;28;20551;-76
2022/05/04 08:38:33;;;;;;;0.60;0.10;;;;;;;;;;5081760;28;20998;-77
2022/05/04 08:47:56;;;;;;;0.60;0.20;;;;;;;;;;4924764;29;20536;-77
2022/05/04 08:50:24;;;;;;;0.60;0.10;;;18.60;99.90;;;;;;4954834;29;20552;-77
2022/05/04 08:52:53;;;;;;;0.60;0.10;;;18.60;99.90;;;;;;4957042;29;20442;-77
2022/05/04 08:55:22;;;;;;;0.60;0.10;;;18.60;99.90;;;;;;4953895;29;21071;-77
2022/05/04 08:57:51;;;;;;;0.60;0.20;;;18.60;99.90;;;;;;4954322;29;20487;-78
2022/05/04 09:00:20;;;;;;;0.60;0.10;;;18.60;99.90;;;;;;4953349;29;20442;-77
2022/05/04 09:02:48;;;;;;;0.60;0.10;;;18.70;99.90;;;;;;4953621;29;20453;-76
2022/05/04 09:05:20;;;;;;;0.70;0.30;;;18.70;99.90;;;;;;4953884;29;20481;-79
2022/05/04 09:07:49;;;;;;;5.97;5.70;;;18.60;99.90;;;;;;4952605;29;20970;-77
2022/05/04 09:10:23;;;;;;;0.60;0.10;;;18.70;99.90;;;;;;4963163;29;20446;-80
2022/05/04 09:12:53;;;;;;;0.60;0.10;;;18.80;99.90;;;;;;5000734;28;20457;-77
2022/05/04 09:15:23;;;;;;;0.60;0.20;;;18.90;99.90;;;;;;5041484;28;20660;-80
2022/05/04 09:17:59;;;;;;;0.60;0.10;;;18.90;99.90;;;;;;5077895;28;20499;-79
2022/05/04 09:20:47;;;;;;;0.80;0.20;;;19.00;99.90;;;;;;5069019;28;20469;-79
2022/05/04 09:23:19;;;;;;;0.60;0.10;;;19.10;99.90;;;;;;5076514;28;20467;-78
2022/05/04 09:25:50;;;;;;;0.80;0.73;;;19.10;99.90;;;;;;5075683;28;20486;-80
2022/05/04 09:28:19;;;;;;;0.60;0.20;;;19.00;99.90;;;;;;5079637;28;20468;-78
2022/05/04 09:30:49;;;;;;;0.60;0.10;;;18.80;99.90;;;;;;5076801;28;20465;-78
2022/05/04 09:33:18;;;;;;;0.60;0.10;;;;;;;;;;5081045;28;20963;-79
2022/05/04 09:35:48;;;;;;;4.20;0.97;;;;;;;;;;5084350;28;20578;-80
2022/05/04 09:46:42;;;;;;;0.60;0.10;;;18.00;99.90;;;;;;5078543;28;20459;-78
2022/05/04 09:49:15;;;;;;;0.60;0.10;;;18.00;99.90;;;;;;5071967;28;20547;-77
2022/05/04 09:51:48;;;;;;;0.60;0.10;;;18.00;99.90;;;;;;5079529;28;20923;-77
2022/05/04 09:54:18;;;;;;;0.60;0.20;;;18.20;99.90;;;;;;5084168;28;20493;-78
2022/05/04 09:56:48;;;;;;;0.60;0.10;;;18.20;99.90;;;;;;5081906;28;20525;-77
2022/05/04 09:59:17;;;;;;;0.60;0.20;;;18.20;99.90;;;;;;5081335;28;20473;-75
2022/05/04 10:01:46;;;;;;;0.70;0.40;;;18.30;99.90;;;;;;5062190;28;20462;-79
2022/05/04 10:04:15;;;;;;;2.63;1.03;;;18.40;99.90;;;;;;5062211;28;20461;-77
2022/05/04 10:06:44;;;;;;;0.60;0.20;;;;;;;;;;5085763;28;20461;-78
2022/05/04 10:09:14;;;;;;;0.60;0.10;;;18.70;99.90;;;;;;5096346;28;20445;-77
2022/05/04 10:11:42;;;;;;;0.60;0.20;;;;;;;;;;5097112;28;20548;-76
2022/05/04 10:14:13;;;;;;;0.60;0.10;;;19.00;99.90;;;;;;5100527;28;20455;-78
2022/05/04 10:16:46;;;;;;;0.60;0.13;;;19.10;99.90;;;;;;5089347;28;20531;-79
2022/05/04 10:19:21;;;;;;;0.63;0.20;;;19.90;99.90;;;;;;5085399;28;20487;-79
2022/05/04 10:21:51;;;;;;;0.60;0.10;;;19.10;99.90;;;;;;5078302;28;20475;-77
2022/05/04 10:24:22;;;;;;;0.70;0.43;;;19.30;99.90;;;;;;5081576;28;20967;-78
2022/05/04 10:26:51;;;;;;;0.80;0.70;;;;;;;;;;5080114;28;20463;-77
2022/05/04 10:32:37;;;;;;;0.60;0.10;;;19.10;99.90;;;;;;5069707;28;20977;-79
2022/05/04 10:35:23;;;;;;;0.80;0.60;;;19.10;99.90;;;;;;5083335;28;20517;-79
2022/05/04 10:38:03;;;;;;;0.60;0.20;;;19.10;99.90;;;;;;5076336;28;20462;-78
2022/05/04 10:40:34;;;;;;;0.90;0.53;;;19.20;99.90;;;;;;5084273;28;20907;-79
2022/05/04 10:43:03;;;;;;;0.60;0.20;;;19.20;99.90;;;;;;5086234;28;20523;-79
2022/05/04 10:45:33;;;;;;;0.60;0.10;;;19.30;99.90;;;;;;5081592;28;20457;-78
2022/05/04 10:48:15;;;;;;;1.13;0.93;;;19.30;99.90;;;;;;5084430;28;20530;-79
2022/05/04 10:50:50;;;;;;;0.60;0.20;;;19.50;99.90;;;;;;5083079;28;20460;-77
2022/05/04 10:53:20;;;;;;;0.60;0.20;;;19.70;99.90;;;;;;5084641;28;20434;-80
2022/05/04 10:56:04;;;;;;;1.90;1.80;;;19.80;99.90;;;;;;5083319;28;20449;-80
2022/05/04 10:58:34;;;;;;;2.23;2.13;;;19.90;99.90;;;;;;5083910;28;20487;-79
2022/05/04 11:01:13;;;;;;;0.60;0.17;;;19.90;99.90;;;;;;5088611;28;20524;-81
2022/05/04 11:04:22;;;;;;;0.60;0.10;;;20.00;99.90;;;;;;5093205;28;20513;-78
2022/05/04 11:06:56;;;;;;;0.60;0.20;;;20.20;99.90;;;;;;5077732;28;20444;-78
2022/05/04 11:09:25;;;;;;;0.60;0.10;;;20.20;99.90;;;;;;5092904;28;20499;-78
2022/05/04 11:11:57;;;;;;;0.70;0.13;;;20.30;99.90;;;;;;5092392;28;20456;-78
2022/05/04 11:14:25;;;;;;;0.70;0.20;;;20.50;99.90;;;;;;5088451;28;20560;-78
2022/05/04 11:16:55;;;;;;;0.70;0.20;;;20.40;99.90;;;;;;5090942;28;20489;-78
2022/05/04 11:19:25;;;;;;;0.70;0.10;;;20.50;99.90;;;;;;5091606;28;20540;-79
2022/05/04 11:21:54;;;;;;;0.70;0.20;;;20.60;99.90;;;;;;5089441;28;20456;-79
2022/05/04 11:24:25;;;;;;;0.70;0.30;;;20.80;99.90;;;;;;5086772;28;20568;-77
2022/05/04 11:26:55;;;;;;;6.93;6.53;;;20.80;99.90;;;;;;5084129;28;20539;-78
2022/05/04 11:29:26;;;;;;;0.70;0.20;;;21.00;99.90;;;;;;5087346;28;20480;-78
2022/05/04 11:31:56;;;;;;;0.70;0.30;;;21.10;99.90;;;;;;5088394;28;20455;-79
2022/05/04 11:34:25;;;;;;;0.80;0.53;;;21.10;99.90;;;;;;5091078;28;20453;-78
2022/05/04 11:36:56;;;;;;;0.70;0.10;;;21.20;99.90;;;;;;5092611;28;20465;-76
2022/05/04 11:39:25;;;;;;;0.70;0.10;;;21.20;99.90;;;;;;5094866;28;20470;-78
2022/05/04 11:41:57;;;;;;;0.70;0.10;;;21.30;99.90;;;;;;5093566;28;20469;-79
2022/05/04 11:44:26;;;;;;;1.00;0.40;;;21.50;99.90;;;;;;5091363;28;20471;-78
2022/05/04 11:46:56;;;;;;;0.70;0.20;;;21.50;99.90;;;;;;5092026;28;20509;-79
2022/05/04 11:49:25;;;;;;;0.70;0.10;;;21.60;99.90;;;;;;5092739;28;20468;-77
2022/05/04 11:51:58;;;;;;;0.70;0.10;;;21.70;99.90;;;;;;5090773;28;20587;-78
2022/05/04 11:54:27;;;;;;;0.90;0.63;;;21.80;99.90;;;;;;5088025;28;20526;-79
2022/05/04 11:56:57;;;;;;;0.70;0.17;;;21.80;99.90;;;;;;5085780;28;20465;-77
2022/05/04 11:59:30;;;;;;;0.70;0.20;;;22.00;99.90;;;;;;5081848;28;20481;-79
2022/05/04 12:01:59;;;;;;;0.70;0.10;;;22.00;99.90;;;;;;5084965;28;20875;-79
2022/05/04 12:04:28;;;;;;;1.33;1.13;;;22.10;99.90;;;;;;5082740;28;20569;-80
2022/05/04 12:06:58;;;;;;;0.70;0.10;;;22.20;99.90;;;;;;5085776;28;20437;-77
2022/05/04 12:09:26;;;;;;;0.70;0.30;;;22.30;99.90;;;;;;5085106;28;20449;-79
2022/05/04 12:12:03;;;;;;;0.70;0.10;;;22.20;99.90;;;;;;5182361;27;20520;-79
2022/05/04 12:14:31;;;;;;;0.70;0.20;;;22.00;99.90;;;;;;5179038;27;20484;-79
2022/05/04 12:17:00;;;;;;;0.70;0.30;;;21.90;99.90;;;;;;5151537;27;20782;-78
2022/05/04 12:19:29;;;;;;;0.70;0.40;;;21.50;99.90;;;;;;5145787;27;20447;-79
2022/05/04 12:21:58;;;;;;;0.90;0.40;;;21.50;99.90;;;;;;5161243;27;20810;-80
2022/05/04 12:24:28;;;;;;;0.70;0.20;;;21.30;99.90;;;;;;5159808;27;20908;-78
2022/05/04 12:26:56;;;;;;;0.70;0.20;;;21.30;99.90;;;;;;5146452;27;20434;-80
2022/05/04 12:35:02;;;;;;;0.70;0.10;;;21.30;99.90;;;;;;5158568;27;20834;-79
2022/05/04 12:37:31;;;;;;;1.87;0.83;;;21.40;99.90;;;;;;5158965;27;20465;-80
2022/05/04 12:40:02;;;;;;;0.70;0.10;;;21.40;99.90;;;;;;5155593;27;20458;-76
2022/05/04 12:42:31;;;;;;;0.97;0.50;;;21.40;99.90;;;;;;5158576;27;20433;-78
2022/05/04 12:45:01;;;;;;;0.70;0.20;;;;;;;;;;5171864;27;20457;-80
2022/05/04 12:47:30;;;;;;;0.70;0.10;;;21.50;99.90;;;;;;5140205;27;20458;-78
2022/05/04 12:49:58;;;;;;;2.30;1.47;;;21.40;99.90;;;;;;5158909;27;20457;-79
2022/05/04 12:52:26;;;;;;;0.70;0.20;;;21.40;99.90;;;;;;5158654;27;20440;-80
2022/05/04 12:54:54;;;;;;;3.13;0.97;;;21.50;99.90;;;;;;5155493;27;20528;-77
2022/05/04 12:57:23;;;;;;;0.70;0.10;;;21.60;99.90;;;;;;5144347;27;20461;-79
2022/05/04 12:59:52;;;;;;;1.00;0.60;;;;;;;;;;5135820;28;20863;-80
2022/05/04 13:02:21;;;;;;;1.20;0.93;;;21.80;99.90;;;;;;5141992;27;20430;-80
2022/05/04 13:04:49;;;;;;;1.67;0.90;;;21.70;99.90;;;;;;5147248;27;20536;-79
2022/05/04 13:07:18;;;;;;;0.70;0.30;;;21.70;99.90;;;;;;5175882;27;20444;-78
2022/05/04 13:09:46;;;;;;;0.83;0.57;;;21.60;99.90;;;;;;5135695;27;20482;-79
2022/05/04 13:12:14;;;;;;;2.17;1.00;;;21.80;99.90;;;;;;5145110;27;20503;-80
2022/05/04 13:14:42;;;;;;;0.70;0.10;;;21.80;99.90;;;;;;5157227;27;20474;-79
2022/05/04 13:17:10;;;;;;;0.70;0.20;;;21.80;99.90;;;;;;5160349;27;20451;-79
2022/05/04 13:19:40;;;;;;;0.90;0.30;;;21.70;99.90;;;;;;5140634;27;20439;-80
2022/05/04 13:22:08;;;;;;;0.70;0.20;;;21.70;99.90;;;;;;5148065;27;20443;-78
2022/05/04 13:24:36;;;;;;;0.70;0.10;;;21.90;99.90;;;;;;5143199;27;20491;-77
2022/05/04 13:27:04;;;;;;;0.80;0.30;;;21.90;99.90;;;;;;5141499;27;20530;-78
2022/05/04 13:29:32;;;;;;;1.40;0.83;;;21.90;99.90;;;;;;5142101;27;20546;-76
2022/05/04 13:32:00;;;;;;;0.70;0.20;;;21.90;99.90;;;;;;5144617;27;20543;-78
2022/05/04 13:34:28;;;;;;;0.70;0.20;;;21.80;99.90;;;;;;5143086;27;20502;-77
2022/05/04 13:36:58;;;;;;;1.17;0.47;;;21.70;99.90;;;;;;5156655;27;20435;-77
2022/05/04 13:39:26;;;;;;;0.70;0.20;;;21.70;99.90;;;;;;5155526;27;20439;-76
2022/05/04 13:41:54;;;;;;;0.70;0.10;;;21.90;99.90;;;;;;5132653;27;20451;-80
2022/05/04 13:44:22;;;;;;;0.70;0.10;;;21.90;99.90;;;;;;5140935;27;20760;-79
2022/05/04 13:46:50;;;;;;;1.63;1.37;;;22.00;99.90;;;;;;5123504;27;20444;-79
2022/05/04 13:49:18;;;;;;;0.70;0.13;;;22.10;99.90;;;;;;5122469;28;20483;-79
2022/05/04 13:54:33;;;;;;;0.70;0.10;;;22.40;99.90;;;;;;5138434;28;20456;-77
2022/05/04 13:57:01;;;;;;;1.73;1.33;;;22.40;99.90;;;;;;5156628;27;20461;-76
2022/05/04 13:59:29;;;;;;;0.70;0.20;;;22.40;99.90;;;;;;5173653;27;20471;-78
2022/05/04 14:01:58;;;;;;;1.13;0.53;;;22.40;99.90;;;;;;5169353;27;20438;-80